createdAt,value
2023-05-11T00:02:19.749Z,11.50
2023-05-11T00:04:52.289Z,12.40
2023-05-11T00:07:19.858Z,1.00
2023-05-11T00:09:47.475Z,1.00
2023-05-11T00:12:20.757Z,1.00
2023-05-11T00:14:51.874Z,1.00
2023-05-11T00:17:22.159Z,1.00
2023-05-11T00:19:49.972Z,4.80
2023-05-11T00:22:17.560Z,10.30
2023-05-11T00:24:46.168Z,10.30
2023-05-11T00:27:13.778Z,22.30
2023-05-11T00:29:44.286Z,22.10
2023-05-11T00:32:11.860Z,28.60
2023-05-11T00:34:39.401Z,39.20
2023-05-11T00:37:07.272Z,30.40
2023-05-11T00:39:40.212Z,36.60
2023-05-11T00:42:07.888Z,32.00
2023-05-11T00:44:35.427Z,27.80
2023-05-11T00:47:03.082Z,49.10
2023-05-11T00:49:31.252Z,46.30
2023-05-11T00:52:02.777Z,45.60
2023-05-11T00:54:31.608Z,44.40
2023-05-11T00:56:59.251Z,50.50
2023-05-11T00:59:27.318Z,33.30
2023-05-11T01:01:55.349Z,35.20
2023-05-11T01:04:23.108Z,26.80
2023-05-11T01:07:12.230Z,28.90
2023-05-11T01:09:51.594Z,58.20
2023-05-11T01:12:35.783Z,78.70
2023-05-11T01:15:21.491Z,88.60
2023-05-11T01:18:01.184Z,99.90
2023-05-11T01:20:32.600Z,99.90
2023-05-11T01:23:37.915Z,99.90
2023-05-11T01:26:33.789Z,99.90
2023-05-11T01:29:26.022Z,99.90
2023-05-11T01:31:56.990Z,99.90
2023-05-11T01:34:33.192Z,99.90
2023-05-11T01:37:11.036Z,99.90
2023-05-11T01:39:55.295Z,99.90
2023-05-11T01:42:32.066Z,99.90
2023-05-11T01:45:01.904Z,99.90
2023-05-11T01:47:34.276Z,99.90
2023-05-11T01:51:07.524Z,99.90
2023-05-11T01:53:38.270Z,99.90
2023-05-11T01:56:06.930Z,99.90
2023-05-11T01:58:37.344Z,99.90
2023-05-11T02:01:05.210Z,99.90
2023-05-11T02:03:35.706Z,99.90
2023-05-11T02:06:05.689Z,99.90
2023-05-11T02:08:34.035Z,99.90
2023-05-11T02:11:03.283Z,99.90
2023-05-11T02:13:33.350Z,99.90
2023-05-11T02:16:02.728Z,99.90
2023-05-11T02:18:31.877Z,99.90
2023-05-11T02:21:01.314Z,99.90
2023-05-11T02:23:32.945Z,99.90
2023-05-11T02:26:03.585Z,99.90
2023-05-11T02:28:31.581Z,99.90
2023-05-11T02:31:14.910Z,99.90
2023-05-11T02:33:46.597Z,99.90
2023-05-11T02:36:19.531Z,99.90
2023-05-11T02:38:49.050Z,99.90
2023-05-11T02:41:27.950Z,99.90
2023-05-11T02:44:03.814Z,99.90
2023-05-11T02:46:38.940Z,99.90
2023-05-11T02:49:09.304Z,99.90
2023-05-11T02:51:38.650Z,99.90
2023-05-11T02:54:10.754Z,99.90
2023-05-11T02:56:39.316Z,99.90
2023-05-11T02:59:07.001Z,99.90
2023-05-11T03:01:37.008Z,99.90
2023-05-11T03:04:11.491Z,99.90
2023-05-11T03:06:39.108Z,99.90
2023-05-11T03:09:09.328Z,99.90
2023-05-11T03:11:38.043Z,99.90
2023-05-11T03:14:06.082Z,99.90
2023-05-11T03:16:38.099Z,99.90
2023-05-11T03:19:08.243Z,99.90
2023-05-11T03:21:38.225Z,99.90
2023-05-11T03:24:07.234Z,99.90
2023-05-11T03:26:38.389Z,99.90
2023-05-11T03:29:08.839Z,99.90
2023-05-11T03:31:36.495Z,99.90
2023-05-11T03:34:04.116Z,99.90
2023-05-11T03:36:33.112Z,99.90
2023-05-11T03:39:03.065Z,99.90
2023-05-11T03:41:35.082Z,99.90
2023-05-11T03:44:05.903Z,99.90
2023-05-11T03:46:37.711Z,99.90
2023-05-11T03:49:06.140Z,99.90
2023-05-11T03:51:37.783Z,99.90
2023-05-11T03:54:06.820Z,99.90
2023-05-11T03:56:42.192Z,99.90
2023-05-11T03:59:15.253Z,99.90
2023-05-11T04:01:43.753Z,99.90
2023-05-11T04:04:12.080Z,99.90
2023-05-11T04:06:39.773Z,99.90
2023-05-11T04:09:08.618Z,99.90
2023-05-11T04:11:37.656Z,99.90
2023-05-11T04:14:05.630Z,99.90
2023-05-11T04:16:33.294Z,99.90
2023-05-11T04:19:01.964Z,99.90
2023-05-11T04:21:32.683Z,99.90
2023-05-11T04:24:00.824Z,99.90
2023-05-11T04:26:28.683Z,99.90
2023-05-11T04:28:56.332Z,99.90
2023-05-11T04:31:24.014Z,99.90
2023-05-11T04:33:51.647Z,99.90
2023-05-11T04:36:20.385Z,99.90
2023-05-11T04:38:48.158Z,99.90
2023-05-11T04:41:15.955Z,99.90
2023-05-11T04:43:44.297Z,99.90
2023-05-11T04:46:12.681Z,99.90
2023-05-11T04:48:40.290Z,99.90
2023-05-11T04:51:08.879Z,99.90
2023-05-11T04:53:37.845Z,99.90
2023-05-11T04:56:05.736Z,99.90
2023-05-11T04:58:33.450Z,99.90
2023-05-11T05:01:01.398Z,99.90
2023-05-11T05:03:29.147Z,99.90
2023-05-11T05:05:56.840Z,99.90
2023-05-11T05:08:33.503Z,99.90
2023-05-11T05:11:01.484Z,99.90
2023-05-11T05:13:29.358Z,99.90
2023-05-11T05:15:57.099Z,99.90
2023-05-11T05:18:25.671Z,99.90
2023-05-11T05:20:56.341Z,99.90
2023-05-11T05:23:27.667Z,99.90
2023-05-11T05:25:55.296Z,99.90
2023-05-11T05:28:23.297Z,99.90
2023-05-11T05:30:51.746Z,99.90
2023-05-11T05:33:19.583Z,99.90
2023-05-11T05:35:47.385Z,99.90
2023-05-11T05:38:15.530Z,99.90
2023-05-11T05:40:43.173Z,99.90
2023-05-11T05:43:11.324Z,99.90
2023-05-11T05:45:39.781Z,99.90
2023-05-11T05:48:09.603Z,99.90
2023-05-11T05:50:37.752Z,99.90
2023-05-11T05:53:05.398Z,99.90
2023-05-11T05:55:34.043Z,99.90
2023-05-11T05:58:01.683Z,99.90
2023-05-11T06:00:30.268Z,99.90
2023-05-11T06:02:58.028Z,99.90
2023-05-11T06:05:38.007Z,99.90
2023-05-11T06:08:11.061Z,99.90
2023-05-11T06:10:40.059Z,99.20
2023-05-11T06:13:13.269Z,99.90
2023-05-11T06:15:44.049Z,84.40
2023-05-11T06:21:19.409Z,99.90
2023-05-11T06:24:14.093Z,99.90
2023-05-11T06:27:11.617Z,93.20
2023-05-11T06:29:46.871Z,77.30
2023-05-11T06:32:14.976Z,72.80
2023-05-11T06:34:47.991Z,92.70
2023-05-11T06:37:20.512Z,77.40
2023-05-11T06:39:49.318Z,67.10
2023-05-11T06:42:17.553Z,20.00
2023-05-11T06:44:46.326Z,56.50
2023-05-11T06:47:16.948Z,39.20
2023-05-11T06:49:45.168Z,21.10
2023-05-11T06:52:13.208Z,16.90
2023-05-11T06:54:41.168Z,3.70
2023-05-11T06:57:14.309Z,1.00
2023-05-11T06:59:42.662Z,1.00
2023-05-11T07:02:10.885Z,1.00
2023-05-11T07:04:38.805Z,1.00
2023-05-11T07:07:06.630Z,1.00
2023-05-11T07:09:34.385Z,1.00
2023-05-11T07:12:02.786Z,1.00
2023-05-11T07:14:31.422Z,10.20
2023-05-11T07:16:59.270Z,1.00
2023-05-11T07:19:27.241Z,1.00
2023-05-11T07:21:55.284Z,1.00
2023-05-11T07:24:23.196Z,1.00
2023-05-11T07:26:52.027Z,1.00
2023-05-11T07:29:19.768Z,1.00
2023-05-11T07:31:48.365Z,1.00
2023-05-11T07:34:16.364Z,1.00
2023-05-11T07:36:44.295Z,1.00
2023-05-11T07:39:12.099Z,1.00
2023-05-11T07:41:40.184Z,1.00
2023-05-11T07:44:09.706Z,1.00
2023-05-11T07:46:38.107Z,1.00
2023-05-11T07:49:15.792Z,99.90
2023-05-11T07:51:51.888Z,1.00
2023-05-11T07:54:21.666Z,99.90
2023-05-11T07:56:50.910Z,99.90
2023-05-11T07:59:18.856Z,1.00
2023-05-11T08:01:46.661Z,99.90
2023-05-11T08:04:16.434Z,99.90
2023-05-11T08:06:44.952Z,1.00
2023-05-11T08:09:13.088Z,99.90
2023-05-11T08:11:41.328Z,9.90
2023-05-11T08:14:09.243Z,71.30
2023-05-11T08:16:38.152Z,99.90
2023-05-11T08:19:06.818Z,1.00
2023-05-11T08:21:36.076Z,99.90
2023-05-11T08:24:05.141Z,1.00
2023-05-11T08:26:33.536Z,1.00
2023-05-11T08:29:01.703Z,1.00
2023-05-11T08:31:32.425Z,99.90
2023-05-11T08:34:02.928Z,99.90
2023-05-11T08:36:30.640Z,99.10
2023-05-11T08:38:59.360Z,99.90
2023-05-11T08:41:28.235Z,1.00
2023-05-11T08:43:58.003Z,1.00
2023-05-11T08:46:30.003Z,1.00
2023-05-11T08:48:58.448Z,1.00
2023-05-11T08:51:28.361Z,1.00
2023-05-11T08:53:57.859Z,1.00
2023-05-11T08:56:26.655Z,1.00
2023-05-11T08:59:00.614Z,99.90
2023-05-11T09:01:29.863Z,99.90
2023-05-11T09:03:58.499Z,1.00
2023-05-11T09:06:28.265Z,99.90
2023-05-11T09:09:08.507Z,1.00
2023-05-11T09:11:38.660Z,99.90
2023-05-11T09:14:08.886Z,1.00
2023-05-11T09:16:38.172Z,1.00
2023-05-11T09:19:14.969Z,99.90
2023-05-11T09:21:45.468Z,99.90
2023-05-11T09:24:13.800Z,1.00
2023-05-11T09:26:41.576Z,1.00
2023-05-11T09:29:09.342Z,1.00
2023-05-11T09:31:47.350Z,99.90
2023-05-11T09:34:25.663Z,99.90
2023-05-11T09:36:55.336Z,99.90
2023-05-11T09:39:43.876Z,80.80
2023-05-11T09:42:17.337Z,99.90
2023-05-11T09:44:46.141Z,99.90
2023-05-11T09:47:19.941Z,99.90
2023-05-11T09:49:48.231Z,99.90
2023-05-11T09:52:18.156Z,99.90
2023-05-11T09:54:48.304Z,99.90
2023-05-11T09:57:30.648Z,99.90
2023-05-11T10:00:00.880Z,99.90
2023-05-11T10:02:30.782Z,99.90
2023-05-11T10:05:01.282Z,91.40
2023-05-11T10:07:36.322Z,99.90
2023-05-11T10:10:08.932Z,99.90
2023-05-11T10:12:39.307Z,99.90
2023-05-11T10:15:09.208Z,99.90
2023-05-11T10:17:37.852Z,99.90
2023-05-11T10:20:09.464Z,97.60
2023-05-11T10:22:37.687Z,1.00
2023-05-11T10:25:06.610Z,1.00
2023-05-11T10:27:35.854Z,1.00
2023-05-11T10:30:04.878Z,1.00
2023-05-11T10:32:38.030Z,1.00
2023-05-11T10:35:06.801Z,1.00
2023-05-11T10:37:37.737Z,1.00
2023-05-11T10:40:07.320Z,1.00
2023-05-11T10:43:02.344Z,1.00
2023-05-11T10:45:48.022Z,1.00
2023-05-11T10:48:41.407Z,1.00
2023-05-11T10:51:24.909Z,1.00
2023-05-11T10:54:14.590Z,1.00
2023-05-11T10:57:07.065Z,1.00
2023-05-11T10:59:37.704Z,1.00
2023-05-11T11:02:06.595Z,1.00
2023-05-11T11:04:48.875Z,1.00
2023-05-11T11:07:19.456Z,1.00
2023-05-11T11:09:49.881Z,1.00
2023-05-11T11:12:17.251Z,1.00
2023-05-11T11:14:59.229Z,1.00
2023-05-11T11:17:32.218Z,1.00
2023-05-11T11:20:04.295Z,1.00
2023-05-11T11:22:39.063Z,1.00
2023-05-11T11:25:15.086Z,1.00
2023-05-11T11:27:45.650Z,1.00
2023-05-11T11:30:26.110Z,1.00
2023-05-11T11:33:08.278Z,1.00
2023-05-11T11:35:42.132Z,1.00
2023-05-11T11:38:11.957Z,1.00
2023-05-11T11:43:26.279Z,1.00
2023-05-11T11:46:01.537Z,1.00
2023-05-11T11:48:36.842Z,1.00
2023-05-11T11:51:08.958Z,1.00
2023-05-11T11:53:37.856Z,1.00
2023-05-11T11:56:07.996Z,1.00
2023-05-11T11:58:41.523Z,99.90
2023-05-11T12:01:12.276Z,99.90
2023-05-11T12:03:41.869Z,99.90
2023-05-11T12:06:12.161Z,97.60
2023-05-11T12:08:41.007Z,47.40
2023-05-11T12:11:08.484Z,34.50
2023-05-11T12:13:36.780Z,30.70
2023-05-11T12:16:18.552Z,1.00
2023-05-11T12:19:01.751Z,1.00
2023-05-11T12:21:32.207Z,1.00
2023-05-11T12:24:04.450Z,1.00
2023-05-11T12:26:33.334Z,1.00
2023-05-11T12:29:09.598Z,1.00
2023-05-11T12:31:41.283Z,1.00
2023-05-11T12:34:17.977Z,1.00
2023-05-11T12:36:46.691Z,1.00
2023-05-11T12:39:18.867Z,1.00
2023-05-11T12:41:49.150Z,1.00
2023-05-11T12:44:18.173Z,1.00
2023-05-11T12:46:50.079Z,1.00
2023-05-11T12:49:25.879Z,1.00
2023-05-11T12:52:08.146Z,1.00
2023-05-11T12:54:38.411Z,1.00
2023-05-11T12:57:22.570Z,1.00
2023-05-11T13:00:04.972Z,1.00
2023-05-11T13:02:32.642Z,1.00
2023-05-11T13:05:15.682Z,1.00
2023-05-11T13:07:44.439Z,1.00
2023-05-11T13:10:14.101Z,1.00
2023-05-11T13:12:49.681Z,1.00
2023-05-11T13:15:18.511Z,1.00
2023-05-11T13:17:46.585Z,1.00
2023-05-11T13:20:19.612Z,1.00
2023-05-11T13:22:48.423Z,1.00
2023-05-11T13:25:23.827Z,1.00
2023-05-11T13:27:51.449Z,1.00
2023-05-11T13:30:18.982Z,1.00
2023-05-11T13:32:46.672Z,1.00
2023-05-11T13:35:14.086Z,1.00
2023-05-11T13:37:41.641Z,1.00
2023-05-11T13:40:10.486Z,1.00
2023-05-11T13:42:40.510Z,1.00
2023-05-11T13:45:08.598Z,37.50
2023-05-11T13:47:36.410Z,85.50
2023-05-11T13:50:04.679Z,99.90
2023-05-11T13:52:32.069Z,1.00
2023-05-11T13:54:59.678Z,1.00
2023-05-11T13:57:27.275Z,24.20
2023-05-11T13:59:55.209Z,1.00
2023-05-11T14:02:22.813Z,1.00
2023-05-11T14:04:50.487Z,1.00
2023-05-11T14:07:17.969Z,99.90
2023-05-11T14:09:47.725Z,1.00
2023-05-11T14:12:15.111Z,1.00
2023-05-11T14:14:45.555Z,99.90
2023-05-11T14:17:16.665Z,99.90
2023-05-11T14:19:47.519Z,99.90
2023-05-11T14:22:20.760Z,1.00
2023-05-11T14:24:48.239Z,1.00
2023-05-11T14:27:15.932Z,1.00
2023-05-11T14:29:46.464Z,99.90
2023-05-11T14:32:14.271Z,1.00
2023-05-11T14:34:42.835Z,1.00
2023-05-11T14:37:10.305Z,1.00
2023-05-11T14:39:37.654Z,99.90
2023-05-11T14:42:05.523Z,99.90
2023-05-11T14:44:33.199Z,99.90
2023-05-11T14:47:05.293Z,99.90
2023-05-11T14:49:33.338Z,99.90
2023-05-11T14:52:03.103Z,99.90
2023-05-11T14:54:52.928Z,99.90
2023-05-11T14:57:21.138Z,99.90
2023-05-11T15:00:00.671Z,99.90
2023-05-11T15:02:31.905Z,1.00
2023-05-11T15:04:59.540Z,1.00
2023-05-11T15:07:31.995Z,1.00
2023-05-11T15:10:01.812Z,1.00
2023-05-11T15:12:29.449Z,1.00
2023-05-11T15:14:56.809Z,1.00
2023-05-11T15:21:39.366Z,1.00
2023-05-11T15:24:10.037Z,1.00
2023-05-11T15:26:38.556Z,1.00
2023-05-11T15:29:06.224Z,1.00
2023-05-11T15:31:36.463Z,1.00
2023-05-11T15:34:06.086Z,1.00
2023-05-11T15:36:36.834Z,1.00
2023-05-11T15:39:10.141Z,1.00
2023-05-11T15:41:45.620Z,1.00
2023-05-11T15:44:15.210Z,99.90
2023-05-11T15:46:42.721Z,99.90
2023-05-11T15:49:10.448Z,8.10
2023-05-11T15:51:37.976Z,99.90
2023-05-11T15:54:19.401Z,1.00
2023-05-11T15:56:46.871Z,1.00
2023-05-11T15:59:14.409Z,1.00
2023-05-11T16:01:42.416Z,99.90
2023-05-11T16:04:10.264Z,1.00
2023-05-11T16:06:38.133Z,99.90
2023-05-11T16:09:06.284Z,1.00
2023-05-11T16:11:34.418Z,1.00
2023-05-11T16:14:03.139Z,99.90
2023-05-11T16:16:32.440Z,13.20
2023-05-11T16:19:00.191Z,8.70
2023-05-11T16:24:09.420Z,1.00
2023-05-11T16:26:38.157Z,1.00
2023-05-11T16:29:11.078Z,99.90
2023-05-11T16:31:38.671Z,1.00
2023-05-11T16:34:07.196Z,1.00
2023-05-11T16:36:38.215Z,1.00
2023-05-11T16:39:05.903Z,1.00
2023-05-11T16:41:33.485Z,1.00
2023-05-11T16:44:01.099Z,99.90
2023-05-11T16:46:28.985Z,1.00
2023-05-11T16:48:58.910Z,1.00
2023-05-11T16:51:26.546Z,1.00
2023-05-11T16:53:53.987Z,1.00
2023-05-11T16:56:22.509Z,1.00
2023-05-11T16:58:50.877Z,1.00
2023-05-11T17:01:18.524Z,1.00
2023-05-11T17:03:46.418Z,1.00
2023-05-11T17:06:17.977Z,1.00
2023-05-11T17:08:47.733Z,1.00
2023-05-11T17:11:17.466Z,1.00
2023-05-11T17:13:45.150Z,1.00
2023-05-11T17:16:12.858Z,1.00
2023-05-11T17:18:41.211Z,1.00
2023-05-11T17:21:09.089Z,1.00
2023-05-11T17:23:40.031Z,1.00
2023-05-11T17:26:11.972Z,1.00
2023-05-11T17:28:40.201Z,1.00
2023-05-11T17:31:12.701Z,1.00
2023-05-11T17:33:44.963Z,2.40
2023-05-11T17:36:13.001Z,14.60
2023-05-11T17:38:40.517Z,14.10
2023-05-11T17:41:08.584Z,24.00
2023-05-11T17:43:38.112Z,55.70
2023-05-11T17:46:06.040Z,85.30
2023-05-11T17:48:33.696Z,73.20
2023-05-11T17:51:01.380Z,99.90
2023-05-11T17:53:51.148Z,99.90
2023-05-11T17:56:19.331Z,99.90
2023-05-11T17:58:49.928Z,99.90
2023-05-11T18:01:30.950Z,99.90
2023-05-11T18:04:02.437Z,99.90
2023-05-11T18:06:30.695Z,99.90
2023-05-11T18:08:59.365Z,99.90
2023-05-11T18:11:27.269Z,99.90
2023-05-11T18:13:54.753Z,99.90
2023-05-11T18:16:22.111Z,99.90
2023-05-11T18:18:50.020Z,99.90
2023-05-11T18:21:17.830Z,99.90
2023-05-11T18:23:45.440Z,99.90
2023-05-11T18:26:16.431Z,99.90
2023-05-11T18:28:47.095Z,99.90
2023-05-11T18:31:14.717Z,99.90
2023-05-11T18:33:42.107Z,99.90
2023-05-11T18:36:11.437Z,99.90
2023-05-11T18:38:38.911Z,99.90
2023-05-11T18:41:07.522Z,99.90
2023-05-11T18:43:34.965Z,99.90
2023-05-11T18:46:07.516Z,99.90
2023-05-11T18:48:35.165Z,99.90
2023-05-11T18:51:02.881Z,99.90
2023-05-11T18:53:30.411Z,99.90
2023-05-11T18:55:57.768Z,99.90
2023-05-11T18:58:25.204Z,99.90
2023-05-11T19:00:52.825Z,99.90
2023-05-11T19:03:20.865Z,99.90
2023-05-11T19:05:49.067Z,99.90
2023-05-11T19:08:16.643Z,99.90
2023-05-11T19:10:48.315Z,99.90
2023-05-11T19:13:15.863Z,99.90
2023-05-11T19:15:46.806Z,99.90
2023-05-11T19:18:14.184Z,99.90
2023-05-11T19:20:41.854Z,99.90
2023-05-11T19:23:13.344Z,99.90
2023-05-11T19:25:48.435Z,99.90
2023-05-11T19:28:27.430Z,99.90
2023-05-11T19:31:05.935Z,99.90
2023-05-11T19:33:33.620Z,99.90
2023-05-11T19:36:04.634Z,99.90
2023-05-11T19:41:12.800Z,99.90
2023-05-11T19:43:42.396Z,99.90
2023-05-11T19:46:12.757Z,99.90
2023-05-11T19:48:40.186Z,99.90
2023-05-11T19:51:07.763Z,99.90
2023-05-11T19:53:35.202Z,99.90
2023-05-11T19:56:03.558Z,99.90
2023-05-11T19:58:31.061Z,99.90
2023-05-11T20:00:58.521Z,99.90
2023-05-11T20:03:28.576Z,99.90
2023-05-11T20:05:56.443Z,99.90
2023-05-11T20:08:23.971Z,99.90
2023-05-11T20:10:51.370Z,99.90
2023-05-11T20:13:18.723Z,99.90
2023-05-11T20:15:46.143Z,99.90
2023-05-11T20:18:13.740Z,99.90
2023-05-11T20:20:41.106Z,99.90
2023-05-11T20:23:08.743Z,99.90
2023-05-11T20:25:41.347Z,99.90
2023-05-11T20:28:09.160Z,99.90
2023-05-11T20:30:56.339Z,99.90
2023-05-11T20:35:54.174Z,99.90
2023-05-11T20:38:22.239Z,99.90
2023-05-11T20:40:49.649Z,99.90
2023-05-11T20:43:17.032Z,99.90
2023-05-11T20:45:44.551Z,99.90
2023-05-11T20:48:12.246Z,99.90
2023-05-11T20:50:39.735Z,99.90
2023-05-11T20:53:07.108Z,99.90
2023-05-11T20:55:34.514Z,99.90
2023-05-11T20:58:04.081Z,99.90
2023-05-11T21:00:31.510Z,99.90
2023-05-11T21:02:59.200Z,99.90
2023-05-11T21:05:26.809Z,99.90
2023-05-11T21:07:54.256Z,99.90
2023-05-11T21:10:21.888Z,99.90
2023-05-11T21:12:52.731Z,99.90
2023-05-11T21:15:20.110Z,99.90
2023-05-11T21:17:47.521Z,99.90
2023-05-11T21:20:14.901Z,99.90
2023-05-11T21:22:42.257Z,99.90
2023-05-11T21:25:11.014Z,99.90
2023-05-11T21:27:41.799Z,99.90
2023-05-11T21:30:09.941Z,99.90
2023-05-11T21:32:37.593Z,99.90
2023-05-11T21:35:05.265Z,99.90
2023-05-11T21:37:35.419Z,99.90
2023-05-11T21:40:03.193Z,99.90
2023-05-11T21:42:36.121Z,99.90
2023-05-11T21:45:07.064Z,99.90
2023-05-11T21:47:34.694Z,99.90
2023-05-11T21:50:02.219Z,99.90
2023-05-11T21:52:29.844Z,99.90
2023-05-11T21:54:57.104Z,99.90
2023-05-11T21:57:24.485Z,99.90
2023-05-11T21:59:51.867Z,99.90
2023-05-11T22:02:19.252Z,99.90
2023-05-11T22:04:47.253Z,99.90
2023-05-11T22:07:14.688Z,99.90
2023-05-11T22:09:42.036Z,99.90
2023-05-11T22:12:09.734Z,99.90
2023-05-11T22:14:37.277Z,99.90
2023-05-11T22:17:07.733Z,99.90
2023-05-11T22:19:37.286Z,99.90
2023-05-11T22:22:04.802Z,99.90
2023-05-11T22:24:32.205Z,99.90
2023-05-11T22:27:02.531Z,99.90
2023-05-11T22:29:29.923Z,99.90
2023-05-11T22:31:58.007Z,99.90
2023-05-11T22:34:25.558Z,99.90
2023-05-11T22:36:53.027Z,99.90
2023-05-11T22:39:21.064Z,99.90
2023-05-11T22:41:48.472Z,99.90
2023-05-11T22:44:15.897Z,99.90
2023-05-11T22:46:43.372Z,99.90
2023-05-11T22:49:10.785Z,99.90
2023-05-11T22:51:38.264Z,99.90
2023-05-11T22:54:05.758Z,99.90
2023-05-11T22:56:33.369Z,99.90
2023-05-11T22:59:00.884Z,99.90
2023-05-11T23:01:28.974Z,99.90
2023-05-11T23:03:56.349Z,99.90
2023-05-11T23:06:24.633Z,99.90
2023-05-11T23:08:52.352Z,99.90
2023-05-11T23:11:19.956Z,99.90
2023-05-11T23:13:47.560Z,99.90
2023-05-11T23:16:15.152Z,99.90
2023-05-11T23:18:42.628Z,99.90
2023-05-11T23:21:10.159Z,99.90
2023-05-11T23:23:38.868Z,99.90
2023-05-11T23:26:06.280Z,99.90
2023-05-11T23:28:33.638Z,99.90
2023-05-11T23:31:03.787Z,99.90
2023-05-11T23:33:45.532Z,99.90
2023-05-11T23:36:13.061Z,99.90
2023-05-11T23:38:40.267Z,99.90
2023-05-11T23:41:08.168Z,99.90
2023-05-11T23:43:35.445Z,99.90
2023-05-11T23:46:02.867Z,99.90
2023-05-11T23:48:30.094Z,99.90
2023-05-11T23:50:57.926Z,99.90
2023-05-11T23:53:25.405Z,99.90
2023-05-11T23:55:52.674Z,99.90
2023-05-11T23:58:20.239Z,99.90
